Data for 03/19/2014

Time Sea-Level Adjusted Pressure Absolute Pressure Temperature Relative Humidity Dew Point   
(mb) (inHg) (mb) (inHg) (C) (F) (%) (C) (F)
00:05 1019 30.09 849 25.07 -5.6 21.9 73 -9.6 14.7
00:10 1019 30.09 849 25.07 -5.4 22.3 72 -9.7 14.6
00:15 1019 30.09 849 25.07 -5.1 22.8 68 -10.1 13.8
00:20 1019 30.09 849 25.07 -4.9 23.2 67 -10.1 13.8
00:25 1019 30.09 849 25.07 -5 23.1 67 -10.2 13.7
00:30 1019 30.09 849 25.07 -4.9 23.2 69 -9.8 14.4
00:35 1019 30.09 848 25.04 -4.9 23.1 69 -9.7 14.5
00:40 1019 30.09 848 25.04 -5.5 22.1 71 -9.9 14.2
00:45 1019 30.09 848 25.04 -5.5 22.1 70 -10.2 13.6
00:50 1019 30.09 848 25.04 -5.8 21.6 72 -10.1 13.8
00:55 1019 30.09 849 25.07 -6.2 20.9 74 -10.2 13.7
01:00 1019 30.09 848 25.04 -6.1 21 74 -10.1 13.9
01:05 1019 30.09 849 25.07 -5.9 21.3 73 -10 14
01:10 1019 30.09 848 25.04 -6 21.2 72 -10.2 13.6
01:15 1019 30.09 848 25.04 -6.3 20.7 74 -10.2 13.6
01:20 1019 30.09 848 25.04 -6.2 20.9 74 -10.1 13.8
01:25 1019 30.09 848 25.04 -6.1 21.1 75 -9.8 14.4
01:30 1019 30.09 848 25.04 -6.2 20.8 76 -9.9 14.3
01:35 1019 30.09 849 25.07 -6.2 20.8 74 -10.1 13.8
01:40 1019 30.09 849 25.07 -6.2 20.9 74 -10 13.9
01:45 1019 30.09 849 25.07 -6.1 20.9 74 -10.1 13.9
01:50 1019 30.09 849 25.07 -6.2 20.9 73 -10.3 13.4
01:55 1019 30.09 848 25.04 -5.9 21.3 69 -10.8 12.6
02:00 1019 30.09 848 25.04 -5.8 21.5 70 -10.4 13.2
02:05 1019 30.09 848 25.04 -6 21.2 71 -10.4 13.3
02:10 1019 30.09 848 25.04 -6.3 20.7 71 -10.7 12.8
02:15 1019 30.09 848 25.04 -6.2 20.8 68 -11.2 11.9
02:20 1019 30.09 848 25.04 -6.1 20.9 69 -11 12.3
02:25 1019 30.09 848 25.04 -6.1 21 70 -10.8 12.5
02:30 1019 30.09 848 25.04 -6.5 20.3 71 -11 12.3
02:35 1019 30.09 848 25.04 -6.7 19.9 73 -10.9 12.4
02:40 1019 30.09 848 25.04 -6.7 20 71 -11.1 12.1
02:45 1019 30.09 848 25.04 -6.6 20.1 71 -11 12.1
02:50 1019 30.09 848 25.04 -6.5 20.3 71 -10.8 12.5
02:55 1019 30.09 848 25.04 -6.5 20.3 70 -11.1 12
03:00 1019 30.09 848 25.04 -6.6 20.1 71 -11.1 12
03:05 1019 30.09 848 25.04 -6.6 20.1 68 -11.5 11.2
03:10 1019 30.09 848 25.04 -6.6 20.1 69 -11.3 11.6
03:15 1019 30.09 848 25.04 -6.6 20.1 70 -11.3 11.7
03:20 1019 30.09 848 25.04 -6.9 19.6 71 -11.4 11.5
03:25 1019 30.09 848 25.04 -6.8 19.7 69 -11.6 11
03:30 1019 30.09 848 25.04 -6.8 19.8 69 -11.5 11.3
03:35 1019 30.09 848 25.04 -7.1 19.3 70 -11.7 11
03:40 1019 30.09 848 25.04 -7.4 18.8 71 -11.8 10.8
03:45 1019 30.09 848 25.04 -7.2 19 72 -11.4 11.4
03:50 1019 30.09 848 25.04 -7.1 19.3 70 -11.7 10.9
03:55 1019 30.09 848 25.04 -7.3 18.9 70 -11.9 10.6
04:00 1019 30.09 848 25.04 -7.4 18.7 70 -12 10.5
04:05 1019 30.09 848 25.04 -7.5 18.6 71 -11.9 10.5
04:10 1019 30.09 848 25.04 -7.5 18.5 72 -11.7 10.9
04:15 1019 30.09 848 25.04 -7.5 18.4 70 -12.1 10.3
04:20 1019 30.09 848 25.04 -7.7 18.1 71 -12.1 10.3
04:25 1019 30.09 848 25.04 -7.9 17.8 73 -12 10.4
04:30 1019 30.09 848 25.04 -7.9 17.8 72 -12.1 10.3
04:35 1019 30.09 848 25.04 -7.9 17.7 71 -12.3 9.9
04:40 1019 30.09 848 25.04 -8 17.6 71 -12.3 9.8
04:45 1019 30.09 848 25.04 -7.9 17.7 71 -12.3 9.9
04:50 1019 30.09 848 25.04 -7.9 17.8 71 -12.3 9.9
04:55 1019 30.09 848 25.04 -7.9 17.8 72 -12.1 10.1
05:00 1019 30.09 848 25.04 -7.7 18.1 70 -12.3 9.9
05:05 1019 30.09 848 25.04 -7.6 18.3 70 -12.3 9.9
05:10 1019 30.09 848 25.04 -7.6 18.3 70 -12.2 10
05:15 1019 30.09 848 25.04 -7.6 18.4 69 -12.2 10
05:20 1019 30.09 848 25.04 -7.7 18.2 70 -12.3 9.9
05:25 1019 30.09 848 25.04 -7.8 18 70 -12.3 9.9
05:30 1019 30.09 848 25.04 -7.8 17.9 71 -12.3 9.9
05:35 1019 30.09 848 25.04 -7.9 17.7 71 -12.3 9.9
05:40 1019 30.09 848 25.04 -8 17.7 71 -12.3 9.8
05:45 1019 30.09 848 25.04 -8 17.7 72 -12.2 10
05:50 1019 30.09 848 25.04 -7.9 17.7 71 -12.4 9.7
05:55 1019 30.09 848 25.04 -8 17.6 73 -12.1 10.3
06:00 1019 30.09 848 25.04 -8 17.6 71 -12.3 9.9
06:05 1019 30.09 848 25.04 -7.9 17.8 69 -12.5 9.4
06:10 1019 30.09 849 25.07 -8 17.5 70 -12.6 9.4
06:15 1019 30.09 849 25.07 -7.9 17.7 70 -12.6 9.4
06:20 1019 30.09 849 25.07 -7.9 17.7 70 -12.4 9.6
06:25 1019 30.09 849 25.07 -8.1 17.5 71 -12.4 9.7
06:30 1019 30.09 849 25.07 -8.2 17.3 72 -12.4 9.6
06:35 1019 30.09 849 25.07 -8.1 17.5 71 -12.4 9.6
06:40 1019 30.09 848 25.04 -8 17.6 70 -12.6 9.3
06:45 1019 30.09 848 25.04 -8 17.6 70 -12.5 9.4
06:50 1019 30.09 848 25.04 -7.9 17.7 70 -12.4 9.6
06:55 1019 30.09 848 25.04 -7.9 17.7 70 -12.5 9.6
07:00 1019 30.09 848 25.04 -7.9 17.8 70 -12.4 9.8
07:05 1019 30.09 848 25.04 -7.8 18 70 -12.3 9.8
07:10 1019 30.09 848 25.04 -7.8 17.9 70 -12.4 9.7
07:15 1019 30.09 848 25.04 -7.7 18.2 69 -12.4 9.7
07:20 1019 30.09 848 25.04 -7.4 18.6 68 -12.3 9.8
07:25 1019 30.09 848 25.04 -7.3 18.8 69 -12.2 10.1
07:30 1019 30.09 848 25.04 -7.1 19.3 68 -12 10.4
07:35 1019 30.09 848 25.04 -7 19.4 67 -12.1 10.2
07:40 1019 30.09 848 25.04 -6.7 20 66 -12.1 10.3
07:45 1019 30.09 848 25.04 -6.3 20.7 65 -11.8 10.8
07:50 1019 30.09 848 25.04 -6.4 20.4 66 -11.9 10.7
07:55 1019 30.09 848 25.04 -6.2 20.8 63 -12.1 10.2
08:00 1019 30.09 848 25.04 -5.5 22.1 61 -11.9 10.5
08:05 1019 30.09 849 25.07 -5 23 59 -11.9 10.6
08:10 1019 30.09 848 25.04 -4.6 23.7 57 -11.9 10.6
08:15 1019 30.09 849 25.07 -4.6 23.7 58 -11.7 10.9
08:20 1019 30.09 849 25.07 -4.1 24.7 57 -11.5 11.4
08:25 1019 30.09 849 25.07 -3.9 24.9 55 -11.8 10.8
08:30 1019 30.09 849 25.07 -3.4 25.8 54 -11.5 11.2
08:35 1019 30.09 849 25.07 -2.7 27.2 51 -11.6 11.2
08:40 1019 30.09 849 25.07 -2.3 27.8 50 -11.3 11.6
08:45 1019 30.09 849 25.07 -2.3 27.9 49 -11.6 11.2
08:50 1019 30.09 849 25.07 -1.5 29.3 48 -11.2 11.8
08:55 1019 30.09 849 25.07 -2.1 28.3 51 -11 12.1
09:00 1019 30.09 849 25.07 -2.7 27.1 54 -10.7 12.7
09:05 1019 30.09 849 25.07 -3 26.6 52 -11.5 11.4
09:10 1019 30.09 849 25.07 -2.5 27.5 52 -11 12.1
09:15 1019 30.09 848 25.04 -1.9 28.5 52 -10.5 13.1
09:20 1019 30.09 848 25.04 -2 28.4 51 -10.7 12.7
09:25 1019 30.09 848 25.04 -1.7 29 49 -11.2 11.9
09:30 1019 30.09 848 25.04 -1.6 29.1 52 -10.3 13.4
09:35 1019 30.09 848 25.04 -1.6 29.2 51 -10.3 13.4
09:40 1019 30.09 848 25.04 -1.7 28.9 53 -10.1 13.7
09:45 1019 30.09 848 25.04 -1.9 28.6 51 -10.7 12.8
09:50 1018 30.06 848 25.04 -1.8 28.7 51 -10.7 12.8
09:55 1018 30.06 848 25.04 -2.2 28.1 54 -10.2 13.6
10:00 1018 30.06 847 25.01 -2.3 27.8 52 -10.8 12.5
10:05 1018 30.06 847 25.01 -2 28.4 52 -10.6 12.9
10:10 1018 30.06 847 25.01 -2 28.4 53 -10.3 13.4
10:15 1018 30.06 847 25.01 -2.1 28.3 53 -10.4 13.3
10:20 1018 30.06 847 25.01 -1.7 29 50 -10.7 12.8
10:25 1018 30.06 847 25.01 -0.8 30.5 48 -10.5 13.1
10:30 1018 30.06 847 25.01 -0.4 31.2 46 -10.7 12.8
10:35 1018 30.06 847 25.01 -0 32 42 -11.6 11.1
10:40 1017 30.03 847 25.01 0.4 32.7 42 -11.2 11.9
10:45 1017 30.03 847 25.01 0.5 32.9 42 -10.9 12.4
10:50 1017 30.03 847 25.01 1.6 35 37 -11.4 11.5
10:55 1017 30.03 846 24.98 2.5 36.5 34 -11.8 10.7
11:00 1017 30.03 847 25.01 2.7 36.8 32 -12.3 9.8
11:05 1017 30.03 847 25.01 4 39.3 31 -11.5 11.3
11:10 1017 30.03 846 24.98 4.1 39.3 37 -9.3 15.3
11:15 1017 30.03 846 24.98 3 37.3 40 -9.4 15.2
11:20 1017 30.03 846 24.98 2.5 36.5 41 -9.3 15.2
11:25 1017 30.03 846 24.98 1.6 34.8 43 -9.8 14.3
11:30 1017 30.03 846 24.98 1.2 34.2 45 -9.5 14.8
11:35 1017 30.03 846 24.98 1.5 34.7 41 -10.3 13.5
11:40 1017 30.03 846 24.98 1.4 34.4 43 -9.8 14.4
11:45 1017 30.03 846 24.98 0.2 32.4 46 -10.1 13.7
11:50 1017 30.03 846 24.98 -0.1 31.9 46 -10.3 13.5
11:55 1017 30.03 846 24.98 0.5 32.8 43 -10.7 12.7
12:00 1017 30.03 846 24.98 1.5 34.7 42 -10.1 13.8
12:05 1017 30.03 846 24.98 2.6 36.7 39 -9.9 14.2
12:10 1017 30.03 846 24.98 3.1 37.6 39 -9.7 14.6
12:15 1017 30.03 846 24.98 3.3 38 37 -10.1 13.8
12:20 1017 30.03 846 24.98 3.8 38.9 40 -8.7 16.3
12:25 1017 30.03 846 24.98 3.9 39.1 38 -9.2 15.5
12:30 1016 30 846 24.98 3.9 39 37 -9.7 14.6
12:35 1016 30 846 24.98 4.1 39.3 39 -8.8 16.1
12:40 1016 30 846 24.98 3.5 38.2 40 -8.9 15.9
12:45 1016 30 845 24.95 3.6 38.6 40 -8.9 16.1
12:50 1016 30 845 24.95 3.8 38.8 38 -9.1 15.6
12:55 1016 30 845 24.95 2.9 37.2 41 -9.2 15.5
13:00 1016 30 845 24.95 2.1 35.8 43 -9.1 15.5
13:05 1016 30 845 24.95 1.7 35.1 46 -8.6 16.5
13:10 1016 30 845 24.95 2.1 35.8 44 -8.9 16
13:15 1016 30 845 24.95 1.9 35.5 41 -9.8 14.3
13:20 1016 30 845 24.95 2 35.5 44 -9.2 15.5
13:25 1015 29.97 845 24.95 1.9 35.4 44 -9.1 15.6
13:30 1015 29.97 845 24.95 2.3 36.1 42 -9.4 15.1
13:35 1015 29.97 845 24.95 2.6 36.7 41 -9.2 15.4
13:40 1015 29.97 844 24.92 2.7 36.9 42 -9 15.8
13:45 1015 29.97 844 24.92 2.7 36.8 42 -8.9 15.9
13:50 1015 29.97 844 24.92 2.7 36.8 43 -8.6 16.4
13:55 1015 29.97 844 24.92 3.3 38 42 -8.5 16.7
14:00 1015 29.97 844 24.92 3.7 38.7 39 -8.9 15.9
14:05 1015 29.97 844 24.92 3 37.3 42 -8.7 16.4
14:10 1015 29.97 844 24.92 3.4 38.1 40 -9 15.9
14:15 1015 29.97 844 24.92 3.7 38.7 39 -8.9 16
14:20 1015 29.97 844 24.92 4 39.2 39 -8.9 16
14:25 1015 29.97 844 24.92 5 41 36 -9 15.8
14:30 1015 29.97 844 24.92 5.8 42.4 32 -9.7 14.5
14:35 1014 29.94 844 24.92 6.1 43 30 -10.1 13.9
14:40 1014 29.94 844 24.92 6.9 44.5 31 -9.2 15.5
14:45 1014 29.94 844 24.92 7.6 45.8 30 -8.7 16.3
14:50 1014 29.94 844 24.92 5.6 42.1 35 -8.5 16.7
14:55 1014 29.94 843 24.89 4.7 40.4 38 -8.6 16.5
15:00 1014 29.94 843 24.89 4.4 39.9 36 -9.5 14.9
15:05 1014 29.94 843 24.89 4.9 40.7 33 -10 14.1
15:10 1014 29.94 843 24.89 5.5 41.8 33 -9.4 15.1
15:15 1014 29.94 843 24.89 5.7 42.3 33 -9.5 14.9
15:20 1014 29.94 843 24.89 5.5 41.9 34 -9.3 15.3
15:25 1014 29.94 843 24.89 5.7 42.3 32 -9.7 14.5
15:30 1014 29.94 843 24.89 5.4 41.7 34 -9.2 15.5
15:35 1014 29.94 843 24.89 5.7 42.2 32 -9.7 14.5
15:40 1014 29.94 843 24.89 5.9 42.6 32 -9.5 14.9
15:45 1014 29.94 843 24.89 6.1 43 31 -9.9 14.2
15:50 1014 29.94 843 24.89 6 42.9 30 -10.4 13.3
15:55 1014 29.94 843 24.89 6.4 43.5 29 -10.2 13.6
16:00 1014 29.94 843 24.89 6.3 43.4 30 -9.9 14.2
16:05 1014 29.94 843 24.89 5.6 42.1 27 -12.2 10.1
16:10 1014 29.94 843 24.89 6.6 43.9 24 -12.7 9.1
16:15 1014 29.94 843 24.89 7.3 45.2 25 -11.6 11
16:20 1014 29.94 843 24.89 7.6 45.6 25 -11.3 11.6
16:25 1014 29.94 843 24.89 7.2 44.9 27 -10.5 13.2
16:30 1014 29.94 843 24.89 6.4 43.6 29 -10.4 13.3
16:35 1014 29.94 843 24.89 5.9 42.6 28 -11.3 11.7
16:40 1014 29.94 843 24.89 6 42.8 25 -12.6 9.4
16:45 1014 29.94 843 24.89 6.2 43.2 25 -12.3 9.8
16:50 1014 29.94 843 24.89 6.1 42.9 26 -11.9 10.6
16:55 1014 29.94 843 24.89 6.3 43.4 26 -12.1 10.3
17:00 1014 29.94 843 24.89 6.7 44 26 -11.3 11.6
17:05 1014 29.94 843 24.89 6.4 43.6 27 -11.5 11.3
17:10 1014 29.94 843 24.89 5.9 42.6 27 -11.9 10.6
17:15 1014 29.94 843 24.89 5.5 41.8 29 -11.1 12.1
17:20 1014 29.94 843 24.89 5 41 32 -10.5 13.1
17:25 1014 29.94 843 24.89 5.2 41.4 31 -10.5 13.1
17:30 1014 29.94 843 24.89 5.7 42.3 28 -11.5 11.3
17:35 1014 29.94 843 24.89 5.8 42.4 29 -11 12.2
17:40 1014 29.94 843 24.89 5.7 42.2 27 -11.8 10.7
17:45 1014 29.94 843 24.89 5.6 42 28 -11.4 11.5
17:50 1014 29.94 843 24.89 5.5 42 28 -11.7 10.9
17:55 1014 29.94 843 24.89 5.4 41.6 30 -10.8 12.6
18:00 1014 29.94 843 24.89 5.2 41.3 32 -10.3 13.4
18:05 1014 29.94 843 24.89 4.9 40.8 33 -10.1 13.8
18:10 1013 29.91 843 24.89 4.6 40.2 32 -10.9 12.4
18:15 1013 29.91 843 24.89 4.6 40.3 32 -10.8 12.5
18:20 1013 29.91 843 24.89 4.7 40.4 30 -11.6 11.1
18:25 1013 29.91 843 24.89 4.8 40.6 32 -10.6 13
18:30 1013 29.91 843 24.89 4.5 40.2 32 -10.8 12.5
18:35 1013 29.91 843 24.89 4.9 40.7 29 -11.8 10.7
18:40 1013 29.91 843 24.89 5 41.1 30 -11.3 11.7
18:45 1013 29.91 843 24.89 4.9 40.8 31 -10.7 12.7
18:50 1013 29.91 843 24.89 4.6 40.3 31 -10.9 12.3
18:55 1013 29.91 843 24.89 4.4 40 31 -11.3 11.6
19:00 1013 29.91 843 24.89 4.3 39.8 33 -10.8 12.6
19:05 1013 29.91 843 24.89 4.1 39.4 33 -10.9 12.4
19:10 1013 29.91 843 24.89 4.3 39.7 31 -11.5 11.3
19:15 1013 29.91 842 24.86 4.6 40.3 31 -11.3 11.7
19:20 1013 29.91 842 24.86 4.6 40.3 30 -11.7 11
19:25 1013 29.91 842 24.86 4.6 40.2 29 -12 10.4
19:30 1013 29.91 842 24.86 4.7 40.4 29 -11.8 10.7
19:35 1013 29.91 842 24.86 4.5 40.1 35 -9.6 14.7
19:40 1013 29.91 842 24.86 4 39.2 33 -10.8 12.6
19:45 1013 29.91 842 24.86 3.8 38.9 34 -10.6 12.9
19:50 1013 29.91 842 24.86 3.9 39 34 -10.6 12.9
19:55 1013 29.91 842 24.86 4 39.2 32 -11.2 11.9
20:00 1013 29.91 842 24.86 4 39.2 32 -11.4 11.5
20:05 1013 29.91 842 24.86 4.3 39.8 32 -11.1 12.1
20:10 1013 29.91 843 24.89 4.1 39.3 32 -11.1 12.1
20:15 1013 29.91 843 24.89 4.2 39.5 31 -11.4 11.5
20:20 1013 29.91 843 24.89 4.2 39.6 32 -11.2 11.9
20:25 1013 29.91 843 24.89 4 39.1 35 -10.2 13.6
20:30 1013 29.91 843 24.89 3.5 38.3 35 -10.4 13.3
20:35 1013 29.91 843 24.89 3.5 38.2 35 -10.6 13
20:40 1014 29.94 843 24.89 3.6 38.5 34 -11 12.2
20:45 1013 29.91 843 24.89 3.8 38.9 32 -11.3 11.6
20:50 1014 29.94 843 24.89 4.1 39.4 33 -11 12.3
20:55 1013 29.91 843 24.89 3.9 39 33 -10.8 12.5
21:00 1014 29.94 843 24.89 3.7 38.7 34 -10.6 12.8
21:05 1014 29.94 843 24.89 3.7 38.7 36 -9.9 14.2
21:10 1014 29.94 843 24.89 3.5 38.2 38 -9.6 14.7
21:15 1014 29.94 843 24.89 3.6 38.4 34 -10.9 12.3
21:20 1014 29.94 843 24.89 3.6 38.4 34 -11 12.2
21:25 1014 29.94 843 24.89 3.5 38.4 34 -10.9 12.4
21:30 1014 29.94 843 24.89 3.6 38.5 35 -10.5 13.1
21:35 1014 29.94 843 24.89 3.4 38.1 37 -10 14
21:40 1014 29.94 843 24.89 3.1 37.6 35 -10.8 12.5
21:45 1014 29.94 843 24.89 3.2 37.8 37 -10.1 13.8
21:50 1014 29.94 843 24.89 3 37.4 37 -10.5 13.2
21:55 1014 29.94 843 24.89 3 37.4 37 -10.3 13.5
22:00 1014 29.94 843 24.89 2.9 37.3 39 -9.8 14.4
22:05 1014 29.94 843 24.89 2.8 37 36 -10.9 12.4
22:10 1014 29.94 843 24.89 2.9 37.3 37 -10.5 13.2
22:15 1014 29.94 843 24.89 2.8 37.1 37 -10.3 13.4
22:20 1014 29.94 843 24.89 2.8 37 38 -10.1 13.7
22:25 1014 29.94 843 24.89 2.8 37.1 36 -10.7 12.8
22:30 1014 29.94 843 24.89 3.1 37.6 37 -10.3 13.4
22:35 1014 29.94 843 24.89 3.1 37.5 34 -11.4 11.5
22:40 1014 29.94 843 24.89 3.2 37.7 35 -11 12.2
22:45 1014 29.94 843 24.89 3.1 37.5 36 -10.5 13.2
22:50 1014 29.94 843 24.89 2.8 37.1 38 -10.3 13.5
22:55 1014 29.94 843 24.89 2.8 37.1 36 -11 12.3
23:00 1014 29.94 843 24.89 3.2 37.7 36 -10.4 13.2
23:05 1014 29.94 843 24.89 2.8 37.1 37 -10.4 13.3
23:10 1014 29.94 843 24.89 2.7 36.9 36 -11 12.3
23:15 1014 29.94 843 24.89 2.7 36.9 36 -10.8 12.6
23:20 1014 29.94 843 24.89 2.8 37 37 -10.6 12.8
23:25 1014 29.94 843 24.89 2.9 37.3 35 -10.9 12.4
23:30 1013 29.91 843 24.89 3.4 38.1 32 -11.8 10.7
23:35 1013 29.91 843 24.89 3.5 38.4 33 -11.3 11.6
23:40 1013 29.91 843 24.89 3.4 38.1 35 -10.6 12.9
23:45 1013 29.91 843 24.89 3.1 37.7 37 -10.1 13.9
23:50 1013 29.91 843 24.89 2.8 37 39 -10 14
23:55 1013 29.91 843 24.89 2.6 36.8 39 -10.1 13.8
24:00 1013 29.91 843 24.89 2.8 37.1 37 -10.5 13.2